sensor_id;sensor_type;location;lat;lon;timestamp;P1;durP1;ratioP1;P2;durP2;ratioP2
59109;SDS011;44895;47.438;18.978;2022-10-16T00:01:10;10.63;;;5.93;;
59109;SDS011;44895;47.438;18.978;2022-10-16T00:04:15;8.52;;;5.35;;
59109;SDS011;44895;47.438;18.978;2022-10-16T00:07:19;10.52;;;5.68;;
59109;SDS011;44895;47.438;18.978;2022-10-16T00:10:23;9.85;;;6.35;;
59109;SDS011;44895;47.438;18.978;2022-10-16T00:13:27;11.88;;;6.22;;
59109;SDS011;44895;47.438;18.978;2022-10-16T00:16:31;8.82;;;5.18;;
59109;SDS011;44895;47.438;18.978;2022-10-16T00:19:36;12.10;;;5.65;;
59109;SDS011;44895;47.438;18.978;2022-10-16T00:22:39;11.23;;;6.00;;
59109;SDS011;44895;47.438;18.978;2022-10-16T00:25:43;11.07;;;5.60;;
59109;SDS011;44895;47.438;18.978;2022-10-16T00:28:48;11.45;;;5.28;;
59109;SDS011;44895;47.438;18.978;2022-10-16T00:31:52;10.40;;;5.93;;
59109;SDS011;44895;47.438;18.978;2022-10-16T00:34:56;21.55;;;7.97;;
59109;SDS011;44895;47.438;18.978;2022-10-16T00:38:00;9.65;;;5.72;;
59109;SDS011;44895;47.438;18.978;2022-10-16T00:41:05;15.00;;;5.43;;
59109;SDS011;44895;47.438;18.978;2022-10-16T00:47:44;11.60;;;5.82;;
59109;SDS011;44895;47.438;18.978;2022-10-16T00:50:52;10.90;;;5.05;;
59109;SDS011;44895;47.438;18.978;2022-10-16T00:53:56;8.65;;;5.22;;
59109;SDS011;44895;47.438;18.978;2022-10-16T00:57:02;9.75;;;5.80;;
59109;SDS011;44895;47.438;18.978;2022-10-16T01:00:09;9.77;;;5.65;;
59109;SDS011;44895;47.438;18.978;2022-10-16T01:03:22;8.70;;;4.70;;
59109;SDS011;44895;47.438;18.978;2022-10-16T01:06:41;9.15;;;5.65;;
59109;SDS011;44895;47.438;18.978;2022-10-16T01:13:18;10.65;;;5.97;;
59109;SDS011;44895;47.438;18.978;2022-10-16T01:16:34;12.43;;;5.22;;
59109;SDS011;44895;47.438;18.978;2022-10-16T01:23:20;13.07;;;6.38;;
59109;SDS011;44895;47.438;18.978;2022-10-16T01:30:04;10.05;;;5.57;;
59109;SDS011;44895;47.438;18.978;2022-10-16T01:33:35;10.23;;;6.43;;
59109;SDS011;44895;47.438;18.978;2022-10-16T01:36:48;9.95;;;5.38;;
59109;SDS011;44895;47.438;18.978;2022-10-16T01:39:55;10.50;;;6.07;;
59109;SDS011;44895;47.438;18.978;2022-10-16T01:43:08;13.05;;;6.45;;
59109;SDS011;44895;47.438;18.978;2022-10-16T01:46:17;10.77;;;5.75;;
59109;SDS011;44895;47.438;18.978;2022-10-16T01:49:24;12.27;;;5.47;;
59109;SDS011;44895;47.438;18.978;2022-10-16T01:52:31;10.60;;;5.65;;
59109;SDS011;44895;47.438;18.978;2022-10-16T01:55:38;10.05;;;6.15;;
59109;SDS011;44895;47.438;18.978;2022-10-16T01:58:49;14.02;;;6.22;;
59109;SDS011;44895;47.438;18.978;2022-10-16T02:02:01;17.13;;;6.13;;
59109;SDS011;44895;47.438;18.978;2022-10-16T02:05:18;12.65;;;6.13;;
59109;SDS011;44895;47.438;18.978;2022-10-16T02:08:27;9.23;;;6.20;;
59109;SDS011;44895;47.438;18.978;2022-10-16T02:11:33;14.15;;;5.38;;
59109;SDS011;44895;47.438;18.978;2022-10-16T02:14:37;10.13;;;5.70;;
59109;SDS011;44895;47.438;18.978;2022-10-16T02:17:42;14.27;;;7.13;;
59109;SDS011;44895;47.438;18.978;2022-10-16T02:20:57;15.95;;;5.63;;
59109;SDS011;44895;47.438;18.978;2022-10-16T02:24:06;17.57;;;7.33;;
59109;SDS011;44895;47.438;18.978;2022-10-16T02:30:53;11.57;;;5.90;;
59109;SDS011;44895;47.438;18.978;2022-10-16T02:34:02;11.80;;;5.55;;
59109;SDS011;44895;47.438;18.978;2022-10-16T02:37:08;17.42;;;5.82;;
59109;SDS011;44895;47.438;18.978;2022-10-16T02:40:13;15.43;;;6.32;;
59109;SDS011;44895;47.438;18.978;2022-10-16T02:43:18;10.50;;;7.15;;
59109;SDS011;44895;47.438;18.978;2022-10-16T02:46:22;14.57;;;5.25;;
59109;SDS011;44895;47.438;18.978;2022-10-16T02:49:26;13.05;;;6.55;;
59109;SDS011;44895;47.438;18.978;2022-10-16T02:52:29;10.77;;;5.18;;
59109;SDS011;44895;47.438;18.978;2022-10-16T02:55:33;10.32;;;5.70;;
59109;SDS011;44895;47.438;18.978;2022-10-16T02:58:36;11.55;;;6.53;;
59109;SDS011;44895;47.438;18.978;2022-10-16T03:01:41;17.08;;;7.32;;
59109;SDS011;44895;47.438;18.978;2022-10-16T03:04:44;9.63;;;5.82;;
59109;SDS011;44895;47.438;18.978;2022-10-16T03:07:48;9.85;;;6.00;;
59109;SDS011;44895;47.438;18.978;2022-10-16T03:10:52;11.43;;;7.85;;
59109;SDS011;44895;47.438;18.978;2022-10-16T03:13:55;11.40;;;5.75;;
59109;SDS011;44895;47.438;18.978;2022-10-16T03:16:59;8.88;;;5.65;;
59109;SDS011;44895;47.438;18.978;2022-10-16T03:20:03;8.85;;;5.57;;
59109;SDS011;44895;47.438;18.978;2022-10-16T03:23:07;14.80;;;6.30;;
59109;SDS011;44895;47.438;18.978;2022-10-16T03:26:11;9.70;;;5.07;;
59109;SDS011;44895;47.438;18.978;2022-10-16T03:29:15;12.40;;;6.10;;
59109;SDS011;44895;47.438;18.978;2022-10-16T03:32:18;11.65;;;5.93;;
59109;SDS011;44895;47.438;18.978;2022-10-16T03:35:23;11.25;;;6.35;;
59109;SDS011;44895;47.438;18.978;2022-10-16T03:38:27;12.82;;;6.10;;
59109;SDS011;44895;47.438;18.978;2022-10-16T03:41:31;10.27;;;5.28;;
59109;SDS011;44895;47.438;18.978;2022-10-16T03:44:35;14.48;;;5.82;;
59109;SDS011;44895;47.438;18.978;2022-10-16T03:47:38;12.38;;;6.30;;
59109;SDS011;44895;47.438;18.978;2022-10-16T03:50:42;10.80;;;6.18;;
59109;SDS011;44895;47.438;18.978;2022-10-16T03:53:46;10.80;;;5.15;;
59109;SDS011;44895;47.438;18.978;2022-10-16T03:56:50;9.45;;;5.47;;
59109;SDS011;44895;47.438;18.978;2022-10-16T03:59:54;10.93;;;5.72;;
59109;SDS011;44895;47.438;18.978;2022-10-16T04:02:57;11.68;;;5.85;;
59109;SDS011;44895;47.438;18.978;2022-10-16T04:06:02;11.38;;;6.30;;
59109;SDS011;44895;47.438;18.978;2022-10-16T04:09:05;10.10;;;6.22;;
59109;SDS011;44895;47.438;18.978;2022-10-16T04:12:09;9.90;;;5.47;;
59109;SDS011;44895;47.438;18.978;2022-10-16T04:15:13;29.27;;;10.10;;
59109;SDS011;44895;47.438;18.978;2022-10-16T04:18:16;12.60;;;6.18;;
59109;SDS011;44895;47.438;18.978;2022-10-16T04:21:20;11.55;;;5.55;;
59109;SDS011;44895;47.438;18.978;2022-10-16T04:24:24;12.07;;;5.72;;
59109;SDS011;44895;47.438;18.978;2022-10-16T04:27:27;10.73;;;6.07;;
59109;SDS011;44895;47.438;18.978;2022-10-16T04:30:31;12.98;;;5.82;;
59109;SDS011;44895;47.438;18.978;2022-10-16T04:33:36;14.63;;;6.10;;
59109;SDS011;44895;47.438;18.978;2022-10-16T04:36:40;11.25;;;5.88;;
59109;SDS011;44895;47.438;18.978;2022-10-16T04:39:44;10.60;;;5.85;;
59109;SDS011;44895;47.438;18.978;2022-10-16T04:42:48;12.38;;;7.22;;
59109;SDS011;44895;47.438;18.978;2022-10-16T04:45:52;15.27;;;6.35;;
59109;SDS011;44895;47.438;18.978;2022-10-16T04:48:58;11.00;;;5.22;;
59109;SDS011;44895;47.438;18.978;2022-10-16T04:52:02;10.70;;;6.43;;
59109;SDS011;44895;47.438;18.978;2022-10-16T04:55:06;12.07;;;6.90;;
59109;SDS011;44895;47.438;18.978;2022-10-16T04:58:10;12.93;;;6.95;;
59109;SDS011;44895;47.438;18.978;2022-10-16T05:01:13;12.90;;;5.97;;
59109;SDS011;44895;47.438;18.978;2022-10-16T05:04:17;15.18;;;6.85;;
59109;SDS011;44895;47.438;18.978;2022-10-16T05:07:21;14.40;;;6.50;;
59109;SDS011;44895;47.438;18.978;2022-10-16T05:10:25;11.82;;;5.82;;
59109;SDS011;44895;47.438;18.978;2022-10-16T05:13:29;10.95;;;6.95;;
59109;SDS011;44895;47.438;18.978;2022-10-16T05:16:32;10.13;;;5.65;;
59109;SDS011;44895;47.438;18.978;2022-10-16T05:19:36;11.23;;;6.03;;
59109;SDS011;44895;47.438;18.978;2022-10-16T05:22:40;13.45;;;6.28;;
59109;SDS011;44895;47.438;18.978;2022-10-16T05:25:51;12.02;;;6.38;;
59109;SDS011;44895;47.438;18.978;2022-10-16T05:29:01;13.35;;;6.93;;
59109;SDS011;44895;47.438;18.978;2022-10-16T05:32:06;12.32;;;6.47;;
59109;SDS011;44895;47.438;18.978;2022-10-16T05:35:09;11.52;;;5.88;;
59109;SDS011;44895;47.438;18.978;2022-10-16T05:38:13;13.48;;;6.72;;
59109;SDS011;44895;47.438;18.978;2022-10-16T05:41:17;11.90;;;6.38;;
59109;SDS011;44895;47.438;18.978;2022-10-16T05:44:24;10.00;;;5.88;;
59109;SDS011;44895;47.438;18.978;2022-10-16T05:47:28;11.13;;;6.32;;
59109;SDS011;44895;47.438;18.978;2022-10-16T05:50:32;9.02;;;5.60;;
59109;SDS011;44895;47.438;18.978;2022-10-16T05:53:37;11.30;;;7.10;;
59109;SDS011;44895;47.438;18.978;2022-10-16T05:56:42;17.50;;;7.72;;
59109;SDS011;44895;47.438;18.978;2022-10-16T05:59:45;11.23;;;7.40;;
59109;SDS011;44895;47.438;18.978;2022-10-16T06:02:49;13.43;;;6.97;;
59109;SDS011;44895;47.438;18.978;2022-10-16T06:05:53;17.27;;;7.78;;
59109;SDS011;44895;47.438;18.978;2022-10-16T06:08:57;10.55;;;5.88;;
59109;SDS011;44895;47.438;18.978;2022-10-16T06:12:01;13.60;;;7.82;;
59109;SDS011;44895;47.438;18.978;2022-10-16T06:15:05;11.70;;;6.50;;
59109;SDS011;44895;47.438;18.978;2022-10-16T06:18:09;10.27;;;6.20;;
59109;SDS011;44895;47.438;18.978;2022-10-16T06:21:17;15.52;;;7.38;;
59109;SDS011;44895;47.438;18.978;2022-10-16T06:24:22;11.25;;;6.82;;
59109;SDS011;44895;47.438;18.978;2022-10-16T06:27:26;9.55;;;6.05;;
59109;SDS011;44895;47.438;18.978;2022-10-16T06:30:30;9.85;;;6.35;;
59109;SDS011;44895;47.438;18.978;2022-10-16T06:33:34;12.40;;;6.20;;
59109;SDS011;44895;47.438;18.978;2022-10-16T06:36:38;10.18;;;5.70;;
59109;SDS011;44895;47.438;18.978;2022-10-16T06:39:42;12.32;;;7.07;;
59109;SDS011;44895;47.438;18.978;2022-10-16T06:42:46;12.30;;;6.80;;
59109;SDS011;44895;47.438;18.978;2022-10-16T06:45:51;13.38;;;7.55;;
59109;SDS011;44895;47.438;18.978;2022-10-16T06:48:58;11.60;;;7.10;;
59109;SDS011;44895;47.438;18.978;2022-10-16T06:52:02;14.70;;;7.90;;
59109;SDS011;44895;47.438;18.978;2022-10-16T06:55:06;11.63;;;6.55;;
59109;SDS011;44895;47.438;18.978;2022-10-16T06:58:10;12.18;;;5.88;;
59109;SDS011;44895;47.438;18.978;2022-10-16T07:01:15;12.30;;;5.28;;
59109;SDS011;44895;47.438;18.978;2022-10-16T07:04:20;10.25;;;5.70;;
59109;SDS011;44895;47.438;18.978;2022-10-16T07:07:24;10.93;;;5.60;;
59109;SDS011;44895;47.438;18.978;2022-10-16T07:10:29;14.10;;;7.30;;
59109;SDS011;44895;47.438;18.978;2022-10-16T07:13:34;9.43;;;5.20;;
59109;SDS011;44895;47.438;18.978;2022-10-16T07:16:38;12.60;;;7.18;;
59109;SDS011;44895;47.438;18.978;2022-10-16T07:19:42;9.30;;;5.93;;
59109;SDS011;44895;47.438;18.978;2022-10-16T07:22:45;11.25;;;6.45;;
59109;SDS011;44895;47.438;18.978;2022-10-16T07:25:55;10.57;;;6.43;;
59109;SDS011;44895;47.438;18.978;2022-10-16T07:28:59;11.63;;;6.13;;
59109;SDS011;44895;47.438;18.978;2022-10-16T07:32:04;10.40;;;6.80;;
59109;SDS011;44895;47.438;18.978;2022-10-16T07:35:07;10.70;;;6.25;;
59109;SDS011;44895;47.438;18.978;2022-10-16T07:38:11;9.85;;;5.82;;
59109;SDS011;44895;47.438;18.978;2022-10-16T07:41:16;12.25;;;6.63;;
59109;SDS011;44895;47.438;18.978;2022-10-16T07:44:22;10.90;;;6.53;;
59109;SDS011;44895;47.438;18.978;2022-10-16T07:47:25;17.52;;;8.02;;
59109;SDS011;44895;47.438;18.978;2022-10-16T07:50:29;10.07;;;6.43;;
59109;SDS011;44895;47.438;18.978;2022-10-16T07:53:33;10.85;;;6.35;;
59109;SDS011;44895;47.438;18.978;2022-10-16T07:56:37;10.55;;;5.85;;
59109;SDS011;44895;47.438;18.978;2022-10-16T07:59:40;13.13;;;6.18;;
59109;SDS011;44895;47.438;18.978;2022-10-16T08:02:44;11.38;;;6.57;;
59109;SDS011;44895;47.438;18.978;2022-10-16T08:05:48;11.07;;;7.03;;
59109;SDS011;44895;47.438;18.978;2022-10-16T08:08:53;11.68;;;8.23;;
59109;SDS011;44895;47.438;18.978;2022-10-16T08:11:57;11.32;;;7.38;;
59109;SDS011;44895;47.438;18.978;2022-10-16T08:15:01;11.27;;;6.90;;
59109;SDS011;44895;47.438;18.978;2022-10-16T08:18:05;14.30;;;7.40;;
59109;SDS011;44895;47.438;18.978;2022-10-16T08:21:15;10.77;;;6.65;;
59109;SDS011;44895;47.438;18.978;2022-10-16T08:24:21;10.02;;;6.05;;
59109;SDS011;44895;47.438;18.978;2022-10-16T08:27:24;12.18;;;6.00;;
59109;SDS011;44895;47.438;18.978;2022-10-16T08:30:28;10.57;;;6.80;;
59109;SDS011;44895;47.438;18.978;2022-10-16T08:33:32;10.93;;;6.03;;
59109;SDS011;44895;47.438;18.978;2022-10-16T08:36:38;13.20;;;6.85;;
59109;SDS011;44895;47.438;18.978;2022-10-16T08:39:42;9.90;;;6.40;;
59109;SDS011;44895;47.438;18.978;2022-10-16T08:49:43;9.80;;;6.28;;
59109;SDS011;44895;47.438;18.978;2022-10-16T08:52:58;13.68;;;6.70;;
59109;SDS011;44895;47.438;18.978;2022-10-16T08:56:02;10.57;;;6.97;;
59109;SDS011;44895;47.438;18.978;2022-10-16T08:59:06;11.65;;;7.13;;
59109;SDS011;44895;47.438;18.978;2022-10-16T09:15:53;22.45;;;8.82;;
59109;SDS011;44895;47.438;18.978;2022-10-16T09:19:09;10.73;;;6.47;;
59109;SDS011;44895;47.438;18.978;2022-10-16T09:22:22;15.23;;;6.55;;
59109;SDS011;44895;47.438;18.978;2022-10-16T09:25:30;11.50;;;7.68;;
59109;SDS011;44895;47.438;18.978;2022-10-16T09:28:35;13.00;;;6.63;;
59109;SDS011;44895;47.438;18.978;2022-10-16T09:31:39;11.38;;;7.13;;
59109;SDS011;44895;47.438;18.978;2022-10-16T09:34:48;13.95;;;7.18;;
59109;SDS011;44895;47.438;18.978;2022-10-16T09:37:55;12.25;;;6.32;;
59109;SDS011;44895;47.438;18.978;2022-10-16T09:41:03;13.68;;;7.00;;
59109;SDS011;44895;47.438;18.978;2022-10-16T09:47:30;11.52;;;6.90;;
59109;SDS011;44895;47.438;18.978;2022-10-16T09:50:35;10.38;;;6.93;;
59109;SDS011;44895;47.438;18.978;2022-10-16T09:53:45;10.35;;;5.95;;
59109;SDS011;44895;47.438;18.978;2022-10-16T09:56:50;11.43;;;6.35;;
59109;SDS011;44895;47.438;18.978;2022-10-16T09:59:56;9.45;;;5.50;;
59109;SDS011;44895;47.438;18.978;2022-10-16T10:03:01;14.77;;;6.75;;
59109;SDS011;44895;47.438;18.978;2022-10-16T10:06:26;17.40;;;6.93;;
59109;SDS011;44895;47.438;18.978;2022-10-16T10:09:34;13.43;;;6.72;;
59109;SDS011;44895;47.438;18.978;2022-10-16T10:12:42;12.18;;;6.57;;
59109;SDS011;44895;47.438;18.978;2022-10-16T10:15:47;9.40;;;5.32;;
59109;SDS011;44895;47.438;18.978;2022-10-16T10:18:57;11.50;;;6.43;;
59109;SDS011;44895;47.438;18.978;2022-10-16T10:25:32;9.77;;;6.18;;
59109;SDS011;44895;47.438;18.978;2022-10-16T10:32:33;12.80;;;6.28;;
59109;SDS011;44895;47.438;18.978;2022-10-16T10:52:41;8.77;;;4.88;;
59109;SDS011;44895;47.438;18.978;2022-10-16T11:12:35;8.85;;;5.03;;
59109;SDS011;44895;47.438;18.978;2022-10-16T11:15:43;10.13;;;5.45;;
59109;SDS011;44895;47.438;18.978;2022-10-16T11:18:58;12.98;;;5.28;;
59109;SDS011;44895;47.438;18.978;2022-10-16T11:25:31;7.13;;;3.80;;
59109;SDS011;44895;47.438;18.978;2022-10-16T11:28:37;8.00;;;4.35;;
59109;SDS011;44895;47.438;18.978;2022-10-16T11:31:48;7.75;;;5.18;;
59109;SDS011;44895;47.438;18.978;2022-10-16T11:34:57;7.78;;;4.00;;
59109;SDS011;44895;47.438;18.978;2022-10-16T11:38:18;7.38;;;4.30;;
59109;SDS011;44895;47.438;18.978;2022-10-16T11:41:29;10.00;;;5.18;;
59109;SDS011;44895;47.438;18.978;2022-10-16T11:44:50;11.30;;;5.05;;
59109;SDS011;44895;47.438;18.978;2022-10-16T11:48:00;9.55;;;4.38;;
59109;SDS011;44895;47.438;18.978;2022-10-16T11:57:59;7.30;;;4.28;;
59109;SDS011;44895;47.438;18.978;2022-10-16T12:01:27;9.88;;;4.18;;
59109;SDS011;44895;47.438;18.978;2022-10-16T12:07:51;7.78;;;3.80;;
59109;SDS011;44895;47.438;18.978;2022-10-16T12:11:06;8.88;;;3.95;;
59109;SDS011;44895;47.438;18.978;2022-10-16T12:17:26;8.00;;;3.75;;
59109;SDS011;44895;47.438;18.978;2022-10-16T12:20:38;13.55;;;5.53;;
59109;SDS011;44895;47.438;18.978;2022-10-16T12:23:50;6.65;;;3.85;;
59109;SDS011;44895;47.438;18.978;2022-10-16T12:26:56;7.88;;;4.30;;
59109;SDS011;44895;47.438;18.978;2022-10-16T12:30:00;10.02;;;5.68;;
59109;SDS011;44895;47.438;18.978;2022-10-16T12:33:15;7.25;;;3.42;;
59109;SDS011;44895;47.438;18.978;2022-10-16T12:36:32;9.40;;;3.92;;
59109;SDS011;44895;47.438;18.978;2022-10-16T12:39:37;10.30;;;4.05;;
59109;SDS011;44895;47.438;18.978;2022-10-16T12:42:41;6.75;;;3.88;;
59109;SDS011;44895;47.438;18.978;2022-10-16T12:45:45;8.15;;;4.10;;
59109;SDS011;44895;47.438;18.978;2022-10-16T12:48:49;10.80;;;3.70;;
59109;SDS011;44895;47.438;18.978;2022-10-16T12:51:54;7.80;;;3.95;;
59109;SDS011;44895;47.438;18.978;2022-10-16T12:54:58;8.63;;;4.18;;
59109;SDS011;44895;47.438;18.978;2022-10-16T13:01:36;12.13;;;4.10;;
59109;SDS011;44895;47.438;18.978;2022-10-16T13:04:50;9.07;;;3.83;;
59109;SDS011;44895;47.438;18.978;2022-10-16T13:08:27;6.55;;;3.47;;
59109;SDS011;44895;47.438;18.978;2022-10-16T13:22:01;6.78;;;3.25;;
59109;SDS011;44895;47.438;18.978;2022-10-16T13:28:33;7.15;;;3.13;;
59109;SDS011;44895;47.438;18.978;2022-10-16T13:31:39;6.18;;;3.17;;
59109;SDS011;44895;47.438;18.978;2022-10-16T13:34:47;6.65;;;3.85;;
59109;SDS011;44895;47.438;18.978;2022-10-16T13:38:02;6.43;;;3.13;;
59109;SDS011;44895;47.438;18.978;2022-10-16T13:41:14;9.15;;;3.72;;
59109;SDS011;44895;47.438;18.978;2022-10-16T13:44:20;7.03;;;3.22;;
59109;SDS011;44895;47.438;18.978;2022-10-16T13:47:28;7.95;;;3.45;;
59109;SDS011;44895;47.438;18.978;2022-10-16T13:50:33;8.20;;;3.72;;
59109;SDS011;44895;47.438;18.978;2022-10-16T13:53:37;8.05;;;3.95;;
59109;SDS011;44895;47.438;18.978;2022-10-16T13:56:40;12.15;;;3.80;;
59109;SDS011;44895;47.438;18.978;2022-10-16T13:59:44;11.02;;;4.13;;
59109;SDS011;44895;47.438;18.978;2022-10-16T14:03:01;7.38;;;3.88;;
59109;SDS011;44895;47.438;18.978;2022-10-16T14:06:11;6.45;;;2.85;;
59109;SDS011;44895;47.438;18.978;2022-10-16T14:09:25;9.25;;;3.45;;
59109;SDS011;44895;47.438;18.978;2022-10-16T14:12:32;7.05;;;3.65;;
59109;SDS011;44895;47.438;18.978;2022-10-16T14:15:36;6.32;;;2.72;;
59109;SDS011;44895;47.438;18.978;2022-10-16T14:18:40;10.05;;;4.38;;
59109;SDS011;44895;47.438;18.978;2022-10-16T14:21:44;5.97;;;3.38;;
59109;SDS011;44895;47.438;18.978;2022-10-16T14:24:48;5.93;;;3.08;;
59109;SDS011;44895;47.438;18.978;2022-10-16T14:31:17;6.82;;;3.22;;
59109;SDS011;44895;47.438;18.978;2022-10-16T14:34:36;9.02;;;3.22;;
59109;SDS011;44895;47.438;18.978;2022-10-16T14:37:43;6.95;;;3.33;;
59109;SDS011;44895;47.438;18.978;2022-10-16T14:40:48;11.63;;;3.25;;
59109;SDS011;44895;47.438;18.978;2022-10-16T14:43:53;9.93;;;3.67;;
59109;SDS011;44895;47.438;18.978;2022-10-16T14:47:13;9.80;;;5.60;;
59109;SDS011;44895;47.438;18.978;2022-10-16T14:50:19;8.30;;;3.88;;
59109;SDS011;44895;47.438;18.978;2022-10-16T14:53:23;7.45;;;3.50;;
59109;SDS011;44895;47.438;18.978;2022-10-16T14:56:31;7.07;;;3.28;;
59109;SDS011;44895;47.438;18.978;2022-10-16T14:59:40;11.60;;;3.58;;
59109;SDS011;44895;47.438;18.978;2022-10-16T15:02:47;8.90;;;3.95;;
59109;SDS011;44895;47.438;18.978;2022-10-16T15:05:52;11.52;;;4.63;;
59109;SDS011;44895;47.438;18.978;2022-10-16T15:08:56;15.75;;;4.25;;
59109;SDS011;44895;47.438;18.978;2022-10-16T15:12:00;8.65;;;4.88;;
59109;SDS011;44895;47.438;18.978;2022-10-16T15:15:37;7.05;;;3.58;;
59109;SDS011;44895;47.438;18.978;2022-10-16T15:18:41;7.25;;;3.38;;
59109;SDS011;44895;47.438;18.978;2022-10-16T15:21:45;9.88;;;5.20;;
59109;SDS011;44895;47.438;18.978;2022-10-16T15:24:49;10.57;;;4.80;;
59109;SDS011;44895;47.438;18.978;2022-10-16T15:27:52;9.77;;;4.97;;
59109;SDS011;44895;47.438;18.978;2022-10-16T15:30:56;11.32;;;4.88;;
59109;SDS011;44895;47.438;18.978;2022-10-16T15:34:00;7.53;;;3.80;;
59109;SDS011;44895;47.438;18.978;2022-10-16T15:37:08;8.95;;;4.90;;
59109;SDS011;44895;47.438;18.978;2022-10-16T15:40:12;15.43;;;7.32;;
59109;SDS011;44895;47.438;18.978;2022-10-16T15:43:16;8.70;;;4.93;;
59109;SDS011;44895;47.438;18.978;2022-10-16T15:46:20;9.55;;;6.03;;
59109;SDS011;44895;47.438;18.978;2022-10-16T15:49:25;17.98;;;5.90;;
59109;SDS011;44895;47.438;18.978;2022-10-16T15:52:29;12.85;;;6.00;;
59109;SDS011;44895;47.438;18.978;2022-10-16T15:55:35;11.43;;;6.93;;
59109;SDS011;44895;47.438;18.978;2022-10-16T15:58:41;10.35;;;6.60;;
59109;SDS011;44895;47.438;18.978;2022-10-16T16:01:45;12.88;;;6.28;;
59109;SDS011;44895;47.438;18.978;2022-10-16T16:04:48;11.20;;;6.13;;
59109;SDS011;44895;47.438;18.978;2022-10-16T16:07:52;13.23;;;7.78;;
59109;SDS011;44895;47.438;18.978;2022-10-16T16:10:57;17.40;;;7.13;;
59109;SDS011;44895;47.438;18.978;2022-10-16T16:14:02;10.48;;;6.40;;
59109;SDS011;44895;47.438;18.978;2022-10-16T16:17:06;11.32;;;7.07;;
59109;SDS011;44895;47.438;18.978;2022-10-16T16:20:10;12.75;;;7.85;;
59109;SDS011;44895;47.438;18.978;2022-10-16T16:23:14;12.27;;;6.70;;
59109;SDS011;44895;47.438;18.978;2022-10-16T16:26:22;12.73;;;6.90;;
59109;SDS011;44895;47.438;18.978;2022-10-16T16:29:29;25.73;;;8.25;;
59109;SDS011;44895;47.438;18.978;2022-10-16T16:32:33;10.23;;;6.28;;
59109;SDS011;44895;47.438;18.978;2022-10-16T16:35:38;11.15;;;7.10;;
59109;SDS011;44895;47.438;18.978;2022-10-16T16:38:41;12.77;;;6.40;;
59109;SDS011;44895;47.438;18.978;2022-10-16T16:41:45;12.68;;;7.75;;
59109;SDS011;44895;47.438;18.978;2022-10-16T16:44:49;13.35;;;7.80;;
59109;SDS011;44895;47.438;18.978;2022-10-16T16:47:53;16.15;;;8.85;;
59109;SDS011;44895;47.438;18.978;2022-10-16T16:51:02;12.00;;;6.50;;
59109;SDS011;44895;47.438;18.978;2022-10-16T16:54:10;12.82;;;6.25;;
59109;SDS011;44895;47.438;18.978;2022-10-16T16:57:15;12.43;;;7.60;;
59109;SDS011;44895;47.438;18.978;2022-10-16T17:00:19;12.80;;;6.45;;
59109;SDS011;44895;47.438;18.978;2022-10-16T17:03:23;11.65;;;5.95;;
59109;SDS011;44895;47.438;18.978;2022-10-16T17:06:27;14.10;;;6.07;;
59109;SDS011;44895;47.438;18.978;2022-10-16T17:09:34;14.18;;;9.10;;
59109;SDS011;44895;47.438;18.978;2022-10-16T17:12:38;12.52;;;9.55;;
59109;SDS011;44895;47.438;18.978;2022-10-16T17:15:46;13.05;;;8.95;;
59109;SDS011;44895;47.438;18.978;2022-10-16T17:18:50;11.15;;;7.38;;
59109;SDS011;44895;47.438;18.978;2022-10-16T17:21:56;10.45;;;6.50;;
59109;SDS011;44895;47.438;18.978;2022-10-16T17:24:59;10.90;;;6.45;;
59109;SDS011;44895;47.438;18.978;2022-10-16T17:28:05;12.20;;;6.38;;
59109;SDS011;44895;47.438;18.978;2022-10-16T17:31:14;12.82;;;6.60;;
59109;SDS011;44895;47.438;18.978;2022-10-16T17:34:20;11.63;;;6.75;;
59109;SDS011;44895;47.438;18.978;2022-10-16T17:37:24;10.20;;;5.90;;
59109;SDS011;44895;47.438;18.978;2022-10-16T17:40:27;11.63;;;5.82;;
59109;SDS011;44895;47.438;18.978;2022-10-16T17:43:31;13.02;;;7.13;;
59109;SDS011;44895;47.438;18.978;2022-10-16T17:46:35;8.75;;;5.38;;
59109;SDS011;44895;47.438;18.978;2022-10-16T17:49:39;13.82;;;6.28;;
59109;SDS011;44895;47.438;18.978;2022-10-16T17:52:42;13.40;;;8.30;;
59109;SDS011;44895;47.438;18.978;2022-10-16T17:55:46;12.90;;;7.18;;
59109;SDS011;44895;47.438;18.978;2022-10-16T17:58:50;10.55;;;6.10;;
59109;SDS011;44895;47.438;18.978;2022-10-16T18:01:56;12.23;;;6.15;;
59109;SDS011;44895;47.438;18.978;2022-10-16T18:05:00;11.88;;;7.13;;
59109;SDS011;44895;47.438;18.978;2022-10-16T18:08:04;10.15;;;6.45;;
59109;SDS011;44895;47.438;18.978;2022-10-16T18:11:09;16.00;;;7.82;;
59109;SDS011;44895;47.438;18.978;2022-10-16T18:14:13;12.82;;;6.90;;
59109;SDS011;44895;47.438;18.978;2022-10-16T18:17:19;11.05;;;5.65;;
59109;SDS011;44895;47.438;18.978;2022-10-16T18:20:23;11.18;;;6.50;;
59109;SDS011;44895;47.438;18.978;2022-10-16T18:23:27;9.43;;;5.70;;
59109;SDS011;44895;47.438;18.978;2022-10-16T18:26:32;12.00;;;7.65;;
59109;SDS011;44895;47.438;18.978;2022-10-16T18:29:36;11.88;;;7.82;;
59109;SDS011;44895;47.438;18.978;2022-10-16T18:32:40;13.57;;;7.43;;
59109;SDS011;44895;47.438;18.978;2022-10-16T18:35:44;12.98;;;7.43;;
59109;SDS011;44895;47.438;18.978;2022-10-16T18:38:48;13.50;;;7.82;;
59109;SDS011;44895;47.438;18.978;2022-10-16T18:41:52;12.68;;;6.53;;
59109;SDS011;44895;47.438;18.978;2022-10-16T18:45:01;10.75;;;7.78;;
59109;SDS011;44895;47.438;18.978;2022-10-16T18:48:05;10.07;;;6.32;;
59109;SDS011;44895;47.438;18.978;2022-10-16T18:51:16;13.77;;;8.00;;
59109;SDS011;44895;47.438;18.978;2022-10-16T18:54:23;13.27;;;7.40;;
59109;SDS011;44895;47.438;18.978;2022-10-16T18:57:27;15.65;;;9.18;;
59109;SDS011;44895;47.438;18.978;2022-10-16T19:00:32;13.18;;;6.82;;
59109;SDS011;44895;47.438;18.978;2022-10-16T19:03:36;16.42;;;7.65;;
59109;SDS011;44895;47.438;18.978;2022-10-16T19:06:42;10.50;;;7.47;;
59109;SDS011;44895;47.438;18.978;2022-10-16T19:09:47;11.38;;;7.05;;
59109;SDS011;44895;47.438;18.978;2022-10-16T19:12:51;13.55;;;7.75;;
59109;SDS011;44895;47.438;18.978;2022-10-16T19:15:55;18.73;;;10.90;;
59109;SDS011;44895;47.438;18.978;2022-10-16T19:18:59;11.60;;;6.43;;
59109;SDS011;44895;47.438;18.978;2022-10-16T19:22:04;13.70;;;9.40;;
59109;SDS011;44895;47.438;18.978;2022-10-16T19:25:17;13.60;;;7.68;;
59109;SDS011;44895;47.438;18.978;2022-10-16T19:28:21;10.10;;;7.65;;
59109;SDS011;44895;47.438;18.978;2022-10-16T19:31:26;12.65;;;7.38;;
59109;SDS011;44895;47.438;18.978;2022-10-16T19:34:31;11.48;;;7.32;;
59109;SDS011;44895;47.438;18.978;2022-10-16T19:37:34;10.65;;;6.97;;
59109;SDS011;44895;47.438;18.978;2022-10-16T19:40:39;12.95;;;8.23;;
59109;SDS011;44895;47.438;18.978;2022-10-16T19:43:43;17.98;;;8.30;;
59109;SDS011;44895;47.438;18.978;2022-10-16T19:46:47;12.43;;;8.18;;
59109;SDS011;44895;47.438;18.978;2022-10-16T19:49:51;12.55;;;8.38;;
59109;SDS011;44895;47.438;18.978;2022-10-16T19:52:55;14.63;;;8.65;;
59109;SDS011;44895;47.438;18.978;2022-10-16T19:56:00;11.38;;;7.60;;
59109;SDS011;44895;47.438;18.978;2022-10-16T19:59:04;14.50;;;8.05;;
59109;SDS011;44895;47.438;18.978;2022-10-16T20:02:10;16.90;;;9.50;;
59109;SDS011;44895;47.438;18.978;2022-10-16T20:05:13;13.48;;;8.35;;
59109;SDS011;44895;47.438;18.978;2022-10-16T20:08:17;16.60;;;10.15;;
59109;SDS011;44895;47.438;18.978;2022-10-16T20:11:22;16.75;;;9.65;;